sensor_id;sensor_type;location;lat;lon;timestamp;pressure;altitude;pressure_sealevel;temperature;humidity
58973;BME280;44750;52.040;7.472;2023-12-28T00:00:23;99381.66;;;8.49;100.00
58973;BME280;44750;52.040;7.472;2023-12-28T00:05:23;99419.28;;;8.50;100.00
58973;BME280;44750;52.040;7.472;2023-12-28T00:10:24;99413.88;;;8.50;100.00
58973;BME280;44750;52.040;7.472;2023-12-28T00:15:24;99430.38;;;8.47;100.00
58973;BME280;44750;52.040;7.472;2023-12-28T00:20:25;99454.97;;;8.44;100.00
58973;BME280;44750;52.040;7.472;2023-12-28T00:25:25;99447.56;;;8.46;100.00
58973;BME280;44750;52.040;7.472;2023-12-28T00:30:25;99472.00;;;8.36;100.00
58973;BME280;44750;52.040;7.472;2023-12-28T00:35:25;99489.69;;;8.31;100.00
58973;BME280;44750;52.040;7.472;2023-12-28T00:40:26;99509.56;;;8.30;100.00
58973;BME280;44750;52.040;7.472;2023-12-28T00:45:26;99539.91;;;8.32;100.00
58973;BME280;44750;52.040;7.472;2023-12-28T00:50:26;99574.13;;;8.40;100.00
58973;BME280;44750;52.040;7.472;2023-12-28T00:55:26;99590.47;;;8.38;100.00
58973;BME280;44750;52.040;7.472;2023-12-28T01:00:26;99611.25;;;8.46;100.00
58973;BME280;44750;52.040;7.472;2023-12-28T01:05:27;99631.31;;;8.51;100.00
58973;BME280;44750;52.040;7.472;2023-12-28T01:10:27;99657.09;;;8.54;100.00
58973;BME280;44750;52.040;7.472;2023-12-28T01:15:27;99679.72;;;8.61;100.00
58973;BME280;44750;52.040;7.472;2023-12-28T01:20:27;99677.38;;;8.66;100.00
58973;BME280;44750;52.040;7.472;2023-12-28T01:25:28;99696.25;;;8.66;100.00
58973;BME280;44750;52.040;7.472;2023-12-28T01:30:28;99715.63;;;8.70;100.00
58973;BME280;44750;52.040;7.472;2023-12-28T01:35:28;99720.03;;;8.71;100.00
58973;BME280;44750;52.040;7.472;2023-12-28T01:40:29;99741.44;;;8.73;100.00
58973;BME280;44750;52.040;7.472;2023-12-28T01:45:29;99747.72;;;8.73;100.00
58973;BME280;44750;52.040;7.472;2023-12-28T01:50:30;99751.06;;;8.75;100.00
58973;BME280;44750;52.040;7.472;2023-12-28T01:55:32;99752.75;;;8.76;100.00
58973;BME280;44750;52.040;7.472;2023-12-28T02:00:34;99760.16;;;8.74;100.00
58973;BME280;44750;52.040;7.472;2023-12-28T02:05:34;99769.97;;;8.83;100.00
58973;BME280;44750;52.040;7.472;2023-12-28T02:10:35;99786.88;;;8.94;100.00
58973;BME280;44750;52.040;7.472;2023-12-28T02:15:35;99784.53;;;8.99;100.00
58973;BME280;44750;52.040;7.472;2023-12-28T02:20:36;99794.31;;;9.08;100.00
58973;BME280;44750;52.040;7.472;2023-12-28T02:25:36;99795.50;;;9.14;100.00
58973;BME280;44750;52.040;7.472;2023-12-28T02:30:37;99802.13;;;9.28;100.00
58973;BME280;44750;52.040;7.472;2023-12-28T02:36:07;99814.94;;;9.26;100.00
58973;BME280;44750;52.040;7.472;2023-12-28T02:41:09;99797.91;;;9.33;100.00
58973;BME280;44750;52.040;7.472;2023-12-28T02:46:10;99789.13;;;9.31;100.00
58973;BME280;44750;52.040;7.472;2023-12-28T02:51:10;99795.22;;;9.33;100.00
58973;BME280;44750;52.040;7.472;2023-12-28T02:56:10;99767.19;;;9.34;100.00
58973;BME280;44750;52.040;7.472;2023-12-28T03:01:11;99750.47;;;9.31;100.00
58973;BME280;44750;52.040;7.472;2023-12-28T03:06:11;99744.06;;;9.32;100.00
58973;BME280;44750;52.040;7.472;2023-12-28T03:11:11;99738.31;;;9.35;100.00
58973;BME280;44750;52.040;7.472;2023-12-28T03:16:13;99735.78;;;9.33;100.00
58973;BME280;44750;52.040;7.472;2023-12-28T03:21:13;99729.22;;;9.28;100.00
58973;BME280;44750;52.040;7.472;2023-12-28T03:26:13;99737.47;;;9.34;100.00
58973;BME280;44750;52.040;7.472;2023-12-28T03:31:14;99721.94;;;9.28;100.00
58973;BME280;44750;52.040;7.472;2023-12-28T03:36:18;99717.06;;;9.24;100.00
58973;BME280;44750;52.040;7.472;2023-12-28T03:41:19;99708.09;;;9.15;100.00
58973;BME280;44750;52.040;7.472;2023-12-28T03:46:19;99735.63;;;9.18;100.00
58973;BME280;44750;52.040;7.472;2023-12-28T03:51:19;99737.28;;;9.19;100.00
58973;BME280;44750;52.040;7.472;2023-12-28T03:56:24;99760.28;;;9.24;100.00
58973;BME280;44750;52.040;7.472;2023-12-28T04:01:25;99764.31;;;9.28;100.00
58973;BME280;44750;52.040;7.472;2023-12-28T04:06:25;99776.13;;;9.27;100.00
58973;BME280;44750;52.040;7.472;2023-12-28T04:11:25;99800.78;;;9.32;100.00
58973;BME280;44750;52.040;7.472;2023-12-28T04:16:25;99792.84;;;9.39;100.00
58973;BME280;44750;52.040;7.472;2023-12-28T04:21:26;99812.59;;;9.39;100.00
58973;BME280;44750;52.040;7.472;2023-12-28T04:26:26;99821.38;;;9.49;100.00
58973;BME280;44750;52.040;7.472;2023-12-28T04:31:26;99826.97;;;9.56;100.00
58973;BME280;44750;52.040;7.472;2023-12-28T04:36:26;99817.00;;;9.57;100.00
58973;BME280;44750;52.040;7.472;2023-12-28T04:41:27;99814.44;;;9.63;100.00
58973;BME280;44750;52.040;7.472;2023-12-28T04:46:27;99819.53;;;9.66;100.00
58973;BME280;44750;52.040;7.472;2023-12-28T04:51:27;99790.47;;;9.68;100.00
58973;BME280;44750;52.040;7.472;2023-12-28T04:56:27;99790.63;;;9.75;100.00
58973;BME280;44750;52.040;7.472;2023-12-28T05:01:27;99770.69;;;9.84;100.00
58973;BME280;44750;52.040;7.472;2023-12-28T05:06:28;99751.09;;;9.91;100.00
58973;BME280;44750;52.040;7.472;2023-12-28T05:11:28;99736.88;;;9.97;100.00
58973;BME280;44750;52.040;7.472;2023-12-28T05:16:28;99740.03;;;10.09;100.00
58973;BME280;44750;52.040;7.472;2023-12-28T05:21:29;99701.00;;;10.11;100.00
58973;BME280;44750;52.040;7.472;2023-12-28T05:26:29;99701.31;;;10.16;100.00
58973;BME280;44750;52.040;7.472;2023-12-28T05:31:29;99656.53;;;10.14;100.00
58973;BME280;44750;52.040;7.472;2023-12-28T05:36:29;99655.16;;;10.18;100.00
58973;BME280;44750;52.040;7.472;2023-12-28T05:41:30;99655.16;;;10.18;100.00
58973;BME280;44750;52.040;7.472;2023-12-28T05:46:30;99642.19;;;10.13;100.00
58973;BME280;44750;52.040;7.472;2023-12-28T05:51:37;99636.28;;;10.10;100.00
58973;BME280;44750;52.040;7.472;2023-12-28T05:56:37;99619.56;;;10.06;100.00
58973;BME280;44750;52.040;7.472;2023-12-28T06:01:44;99603.00;;;10.09;100.00
58973;BME280;44750;52.040;7.472;2023-12-28T06:06:44;99637.59;;;10.14;100.00
58973;BME280;44750;52.040;7.472;2023-12-28T06:11:44;99636.78;;;10.13;100.00
58973;BME280;44750;52.040;7.472;2023-12-28T06:16:44;99623.25;;;10.13;100.00
58973;BME280;44750;52.040;7.472;2023-12-28T06:21:45;99625.09;;;10.13;100.00
58973;BME280;44750;52.040;7.472;2023-12-28T06:26:45;99612.56;;;10.20;100.00
58973;BME280;44750;52.040;7.472;2023-12-28T06:31:45;99608.66;;;10.23;100.00
58973;BME280;44750;52.040;7.472;2023-12-28T06:36:45;99597.00;;;10.22;100.00
58973;BME280;44750;52.040;7.472;2023-12-28T06:41:49;99580.75;;;10.22;100.00
58973;BME280;44750;52.040;7.472;2023-12-28T06:46:49;99591.06;;;10.27;100.00
58973;BME280;44750;52.040;7.472;2023-12-28T06:51:49;99573.16;;;10.26;100.00
58973;BME280;44750;52.040;7.472;2023-12-28T06:56:50;99549.00;;;10.24;100.00
58973;BME280;44750;52.040;7.472;2023-12-28T07:01:50;99543.75;;;10.23;100.00
58973;BME280;44750;52.040;7.472;2023-12-28T07:06:50;99530.88;;;10.25;100.00
58973;BME280;44750;52.040;7.472;2023-12-28T07:11:50;99537.63;;;10.29;100.00
58973;BME280;44750;52.040;7.472;2023-12-28T07:16:50;99540.31;;;10.29;100.00
58973;BME280;44750;52.040;7.472;2023-12-28T07:21:51;99532.41;;;10.27;100.00
58973;BME280;44750;52.040;7.472;2023-12-28T07:26:51;99526.47;;;10.32;100.00
58973;BME280;44750;52.040;7.472;2023-12-28T07:31:51;99528.97;;;10.33;100.00
58973;BME280;44750;52.040;7.472;2023-12-28T07:36:53;99497.34;;;10.34;100.00
58973;BME280;44750;52.040;7.472;2023-12-28T07:41:53;99506.16;;;10.36;100.00
58973;BME280;44750;52.040;7.472;2023-12-28T07:46:53;99506.47;;;10.33;100.00
58973;BME280;44750;52.040;7.472;2023-12-28T07:51:54;99506.47;;;10.33;100.00
58973;BME280;44750;52.040;7.472;2023-12-28T07:56:54;99513.94;;;10.31;100.00
58973;BME280;44750;52.040;7.472;2023-12-28T08:01:55;99518.03;;;10.27;100.00
58973;BME280;44750;52.040;7.472;2023-12-28T08:06:55;99545.56;;;10.30;100.00
58973;BME280;44750;52.040;7.472;2023-12-28T08:11:56;99532.94;;;10.23;100.00
58973;BME280;44750;52.040;7.472;2023-12-28T08:16:56;99525.78;;;10.30;100.00
58973;BME280;44750;52.040;7.472;2023-12-28T08:21:56;99532.22;;;10.29;100.00
58973;BME280;44750;52.040;7.472;2023-12-28T08:26:56;99540.47;;;10.35;100.00
58973;BME280;44750;52.040;7.472;2023-12-28T08:31:57;99521.06;;;10.32;100.00
58973;BME280;44750;52.040;7.472;2023-12-28T08:36:57;99526.78;;;10.37;100.00
58973;BME280;44750;52.040;7.472;2023-12-28T08:41:57;99528.81;;;10.35;100.00
58973;BME280;44750;52.040;7.472;2023-12-28T08:46:58;99530.25;;;10.46;100.00
58973;BME280;44750;52.040;7.472;2023-12-28T08:51:58;99532.78;;;10.47;100.00
58973;BME280;44750;52.040;7.472;2023-12-28T08:56:58;99548.97;;;10.56;100.00
58973;BME280;44750;52.040;7.472;2023-12-28T09:01:58;99550.75;;;10.63;100.00
58973;BME280;44750;52.040;7.472;2023-12-28T09:06:59;99540.03;;;10.70;100.00
58973;BME280;44750;52.040;7.472;2023-12-28T09:11:59;99498.31;;;10.64;100.00
58973;BME280;44750;52.040;7.472;2023-12-28T09:16:59;99496.63;;;10.63;100.00
58973;BME280;44750;52.040;7.472;2023-12-28T09:21:59;99504.31;;;10.75;100.00
58973;BME280;44750;52.040;7.472;2023-12-28T09:27:00;99486.38;;;10.88;100.00
58973;BME280;44750;52.040;7.472;2023-12-28T09:32:00;99486.03;;;10.92;100.00
58973;BME280;44750;52.040;7.472;2023-12-28T09:37:00;99488.28;;;11.03;100.00
58973;BME280;44750;52.040;7.472;2023-12-28T09:42:40;99495.66;;;11.09;100.00
58973;BME280;44750;52.040;7.472;2023-12-28T09:47:36;99475.66;;;11.10;100.00
58973;BME280;44750;52.040;7.472;2023-12-28T09:52:36;99475.03;;;11.08;100.00
58973;BME280;44750;52.040;7.472;2023-12-28T09:57:37;99486.97;;;10.99;100.00
58973;BME280;44750;52.040;7.472;2023-12-28T10:02:39;99474.16;;;10.93;100.00
58973;BME280;44750;52.040;7.472;2023-12-28T10:07:47;99465.75;;;10.87;100.00
58973;BME280;44750;52.040;7.472;2023-12-28T10:12:47;99466.13;;;10.84;100.00
58973;BME280;44750;52.040;7.472;2023-12-28T10:17:48;99462.78;;;10.82;100.00
58973;BME280;44750;52.040;7.472;2023-12-28T10:22:48;99456.59;;;10.88;100.00
58973;BME280;44750;52.040;7.472;2023-12-28T10:27:52;99437.84;;;10.87;100.00
58973;BME280;44750;52.040;7.472;2023-12-28T10:32:52;99440.38;;;10.88;100.00
58973;BME280;44750;52.040;7.472;2023-12-28T10:37:53;99443.75;;;10.91;100.00
58973;BME280;44750;52.040;7.472;2023-12-28T10:43:04;99431.97;;;10.98;100.00
58973;BME280;44750;52.040;7.472;2023-12-28T10:48:12;99436.28;;;11.08;100.00
58973;BME280;44750;52.040;7.472;2023-12-28T10:53:38;99434.84;;;11.27;100.00
58973;BME280;44750;52.040;7.472;2023-12-28T10:58:50;99435.47;;;11.29;100.00
58973;BME280;44750;52.040;7.472;2023-12-28T11:03:58;99390.47;;;11.28;100.00
58973;BME280;44750;52.040;7.472;2023-12-28T11:09:02;99387.84;;;11.19;100.00
58973;BME280;44750;52.040;7.472;2023-12-28T11:14:03;99375.88;;;11.29;100.00
58973;BME280;44750;52.040;7.472;2023-12-28T11:19:04;99357.97;;;11.28;100.00
58973;BME280;44750;52.040;7.472;2023-12-28T11:24:05;99353.94;;;11.38;100.00
58973;BME280;44750;52.040;7.472;2023-12-28T11:29:06;99347.91;;;11.43;100.00
58973;BME280;44750;52.040;7.472;2023-12-28T11:34:07;99335.66;;;11.47;100.00
58973;BME280;44750;52.040;7.472;2023-12-28T11:39:07;99347.03;;;11.58;100.00
58973;BME280;44750;52.040;7.472;2023-12-28T11:44:07;99335.03;;;11.67;100.00
58973;BME280;44750;52.040;7.472;2023-12-28T11:49:09;99309.59;;;11.68;100.00
58973;BME280;44750;52.040;7.472;2023-12-28T11:54:09;99302.50;;;11.67;100.00
58973;BME280;44750;52.040;7.472;2023-12-28T11:59:10;99258.63;;;11.57;100.00
58973;BME280;44750;52.040;7.472;2023-12-28T12:04:11;99259.69;;;11.56;100.00
58973;BME280;44750;52.040;7.472;2023-12-28T12:09:11;99248.69;;;11.64;100.00
58973;BME280;44750;52.040;7.472;2023-12-28T12:14:11;99257.19;;;11.82;100.00
58973;BME280;44750;52.040;7.472;2023-12-28T12:19:11;99253.19;;;12.07;100.00
58973;BME280;44750;52.040;7.472;2023-12-28T12:24:12;99217.34;;;12.18;100.00
58973;BME280;44750;52.040;7.472;2023-12-28T12:29:13;99178.13;;;12.14;100.00
58973;BME280;44750;52.040;7.472;2023-12-28T12:34:15;99163.69;;;12.07;100.00
58973;BME280;44750;52.040;7.472;2023-12-28T12:39:16;99148.44;;;12.06;100.00
58973;BME280;44750;52.040;7.472;2023-12-28T12:44:19;99139.56;;;11.90;100.00
58973;BME280;44750;52.040;7.472;2023-12-28T12:49:21;99118.06;;;11.82;100.00
58973;BME280;44750;52.040;7.472;2023-12-28T12:54:21;99130.13;;;11.79;100.00
58973;BME280;44750;52.040;7.472;2023-12-28T12:59:22;99118.19;;;11.67;100.00
58973;BME280;44750;52.040;7.472;2023-12-28T13:04:22;99122.03;;;11.51;100.00
58973;BME280;44750;52.040;7.472;2023-12-28T13:09:22;99115.41;;;11.53;100.00
58973;BME280;44750;52.040;7.472;2023-12-28T13:14:22;99129.38;;;11.57;100.00
58973;BME280;44750;52.040;7.472;2023-12-28T13:19:23;99108.09;;;11.54;100.00
58973;BME280;44750;52.040;7.472;2023-12-28T13:24:23;99108.34;;;11.59;100.00
58973;BME280;44750;52.040;7.472;2023-12-28T13:29:23;99077.66;;;11.52;100.00
58973;BME280;44750;52.040;7.472;2023-12-28T13:34:23;99050.91;;;11.42;100.00
58973;BME280;44750;52.040;7.472;2023-12-28T13:39:24;99092.00;;;11.46;100.00
58973;BME280;44750;52.040;7.472;2023-12-28T13:44:24;99095.56;;;11.46;100.00
58973;BME280;44750;52.040;7.472;2023-12-28T13:49:24;99096.78;;;11.44;100.00
58973;BME280;44750;52.040;7.472;2023-12-28T13:54:24;99089.47;;;11.44;100.00
58973;BME280;44750;52.040;7.472;2023-12-28T13:59:25;99098.03;;;11.41;100.00
58973;BME280;44750;52.040;7.472;2023-12-28T14:04:25;99082.94;;;11.32;100.00
58973;BME280;44750;52.040;7.472;2023-12-28T14:09:25;99092.34;;;11.36;100.00
58973;BME280;44750;52.040;7.472;2023-12-28T14:14:25;99110.66;;;11.34;100.00
58973;BME280;44750;52.040;7.472;2023-12-28T14:19:26;99086.44;;;11.26;100.00
58973;BME280;44750;52.040;7.472;2023-12-28T14:24:26;99063.69;;;11.20;100.00
58973;BME280;44750;52.040;7.472;2023-12-28T14:29:27;99057.44;;;11.19;100.00
58973;BME280;44750;52.040;7.472;2023-12-28T14:34:27;99069.31;;;11.18;100.00
58973;BME280;44750;52.040;7.472;2023-12-28T14:39:27;99069.75;;;11.22;100.00
58973;BME280;44750;52.040;7.472;2023-12-28T14:44:28;99054.06;;;11.11;100.00
58973;BME280;44750;52.040;7.472;2023-12-28T14:49:28;99071.13;;;11.11;100.00
58973;BME280;44750;52.040;7.472;2023-12-28T14:54:28;99081.72;;;11.06;100.00
58973;BME280;44750;52.040;7.472;2023-12-28T14:59:28;99087.78;;;11.08;100.00
58973;BME280;44750;52.040;7.472;2023-12-28T15:04:28;99072.56;;;11.07;100.00
58973;BME280;44750;52.040;7.472;2023-12-28T15:09:29;99092.38;;;11.08;100.00
58973;BME280;44750;52.040;7.472;2023-12-28T15:14:29;99082.75;;;11.05;100.00
58973;BME280;44750;52.040;7.472;2023-12-28T15:19:30;99075.66;;;11.04;100.00
58973;BME280;44750;52.040;7.472;2023-12-28T15:24:30;99079.41;;;11.03;100.00
58973;BME280;44750;52.040;7.472;2023-12-28T15:29:31;99056.00;;;10.95;100.00
58973;BME280;44750;52.040;7.472;2023-12-28T15:34:31;99039.50;;;10.90;100.00
58973;BME280;44750;52.040;7.472;2023-12-28T15:39:31;99050.22;;;10.98;100.00
58973;BME280;44750;52.040;7.472;2023-12-28T15:44:31;99052.06;;;10.98;100.00
58973;BME280;44750;52.040;7.472;2023-12-28T15:49:32;99043.53;;;10.94;100.00
58973;BME280;44750;52.040;7.472;2023-12-28T15:54:33;99039.97;;;10.94;100.00
58973;BME280;44750;52.040;7.472;2023-12-28T15:59:33;99038.13;;;10.94;100.00
58973;BME280;44750;52.040;7.472;2023-12-28T16:04:33;99026.63;;;10.92;100.00
58973;BME280;44750;52.040;7.472;2023-12-28T16:09:33;99020.56;;;10.90;100.00
58973;BME280;44750;52.040;7.472;2023-12-28T16:14:35;99001.00;;;10.88;100.00
58973;BME280;44750;52.040;7.472;2023-12-28T16:19:39;99002.22;;;10.85;100.00
58973;BME280;44750;52.040;7.472;2023-12-28T16:24:40;98995.28;;;10.76;100.00
58973;BME280;44750;52.040;7.472;2023-12-28T16:29:40;98992.22;;;10.86;100.00
58973;BME280;44750;52.040;7.472;2023-12-28T16:34:40;98985.56;;;10.88;100.00
58973;BME280;44750;52.040;7.472;2023-12-28T16:39:40;98964.31;;;10.85;100.00
58973;BME280;44750;52.040;7.472;2023-12-28T16:44:41;98955.56;;;10.83;100.00
58973;BME280;44750;52.040;7.472;2023-12-28T16:49:41;98949.31;;;10.83;100.00
58973;BME280;44750;52.040;7.472;2023-12-28T16:54:41;98951.19;;;10.82;100.00
58973;BME280;44750;52.040;7.472;2023-12-28T16:59:41;98949.53;;;10.81;100.00
58973;BME280;44750;52.040;7.472;2023-12-28T17:04:42;98946.41;;;10.84;100.00
58973;BME280;44750;52.040;7.472;2023-12-28T17:09:42;98949.13;;;10.84;100.00
58973;BME280;44750;52.040;7.472;2023-12-28T17:14:43;98951.81;;;10.84;100.00
58973;BME280;44750;52.040;7.472;2023-12-28T17:19:43;98958.13;;;10.92;100.00
58973;BME280;44750;52.040;7.472;2023-12-28T17:24:53;98932.03;;;10.84;100.00
58973;BME280;44750;52.040;7.472;2023-12-28T17:30:01;98958.91;;;10.85;100.00
58973;BME280;44750;52.040;7.472;2023-12-28T17:35:01;98940.16;;;10.84;100.00
58973;BME280;44750;52.040;7.472;2023-12-28T17:40:02;98928.91;;;10.80;100.00
58973;BME280;44750;52.040;7.472;2023-12-28T17:45:04;98924.50;;;10.79;100.00
58973;BME280;44750;52.040;7.472;2023-12-28T17:50:06;98936.78;;;10.75;100.00
58973;BME280;44750;52.040;7.472;2023-12-28T17:55:06;98908.19;;;10.66;100.00
58973;BME280;44750;52.040;7.472;2023-12-28T18:00:07;98909.00;;;10.60;100.00
58973;BME280;44750;52.040;7.472;2023-12-28T18:05:08;98904.63;;;10.59;100.00
58973;BME280;44750;52.040;7.472;2023-12-28T18:10:08;98920.44;;;10.62;100.00
58973;BME280;44750;52.040;7.472;2023-12-28T18:15:09;98912.97;;;10.64;100.00
58973;BME280;44750;52.040;7.472;2023-12-28T18:20:09;98932.78;;;10.71;100.00
58973;BME280;44750;52.040;7.472;2023-12-28T18:25:10;98945.69;;;10.69;100.00
58973;BME280;44750;52.040;7.472;2023-12-28T18:30:10;98918.63;;;10.69;100.00
58973;BME280;44750;52.040;7.472;2023-12-28T18:35:11;98916.31;;;10.66;100.00
58973;BME280;44750;52.040;7.472;2023-12-28T18:40:11;98946.31;;;10.71;100.00
58973;BME280;44750;52.040;7.472;2023-12-28T18:45:12;98942.59;;;10.72;100.00
58973;BME280;44750;52.040;7.472;2023-12-28T18:50:12;98914.88;;;10.70;100.00
58973;BME280;44750;52.040;7.472;2023-12-28T18:55:12;98935.75;;;10.76;100.00
58973;BME280;44750;52.040;7.472;2023-12-28T19:00:13;98904.28;;;10.75;100.00
58973;BME280;44750;52.040;7.472;2023-12-28T19:05:13;98948.25;;;10.77;100.00
58973;BME280;44750;52.040;7.472;2023-12-28T19:10:14;98937.22;;;10.79;100.00
58973;BME280;44750;52.040;7.472;2023-12-28T19:15:14;98929.31;;;10.77;100.00
58973;BME280;44750;52.040;7.472;2023-12-28T19:20:14;98923.84;;;10.70;100.00
58973;BME280;44750;52.040;7.472;2023-12-28T19:25:15;98913.44;;;10.74;100.00
58973;BME280;44750;52.040;7.472;2023-12-28T19:30:15;98914.81;;;10.63;100.00
58973;BME280;44750;52.040;7.472;2023-12-28T19:35:15;98926.50;;;10.64;100.00
58973;BME280;44750;52.040;7.472;2023-12-28T19:40:15;98907.94;;;10.61;100.00
58973;BME280;44750;52.040;7.472;2023-12-28T19:45:16;98913.34;;;10.61;100.00
58973;BME280;44750;52.040;7.472;2023-12-28T19:50:16;98931.47;;;10.60;100.00
58973;BME280;44750;52.040;7.472;2023-12-28T19:55:16;98912.47;;;10.53;100.00
58973;BME280;44750;52.040;7.472;2023-12-28T20:00:17;98923.50;;;10.52;100.00
58973;BME280;44750;52.040;7.472;2023-12-28T20:05:17;98930.97;;;10.50;100.00
58973;BME280;44750;52.040;7.472;2023-12-28T20:10:18;98936.59;;;10.48;100.00
58973;BME280;44750;52.040;7.472;2023-12-28T20:15:18;98969.25;;;10.47;100.00
58973;BME280;44750;52.040;7.472;2023-12-28T20:20:18;98957.81;;;10.51;100.00
58973;BME280;44750;52.040;7.472;2023-12-28T20:25:18;98946.56;;;10.48;100.00
58973;BME280;44750;52.040;7.472;2023-12-28T20:30:19;98944.28;;;10.51;100.00
58973;BME280;44750;52.040;7.472;2023-12-28T20:35:19;98954.09;;;10.52;100.00
58973;BME280;44750;52.040;7.472;2023-12-28T20:40:19;98945.09;;;10.45;100.00
58973;BME280;44750;52.040;7.472;2023-12-28T20:45:19;98953.84;;;10.47;100.00
58973;BME280;44750;52.040;7.472;2023-12-28T20:50:20;98945.72;;;10.47;100.00
58973;BME280;44750;52.040;7.472;2023-12-28T20:55:20;98964.41;;;10.42;100.00
58973;BME280;44750;52.040;7.472;2023-12-28T21:00:20;98955.06;;;10.45;100.00
58973;BME280;44750;52.040;7.472;2023-12-28T21:05:20;98964.41;;;10.42;100.00
58973;BME280;44750;52.040;7.472;2023-12-28T21:10:22;98962.94;;;10.40;100.00
58973;BME280;44750;52.040;7.472;2023-12-28T21:15:22;98960.66;;;10.43;100.00
58973;BME280;44750;52.040;7.472;2023-12-28T21:20:23;98993.72;;;10.39;100.00
58973;BME280;44750;52.040;7.472;2023-12-28T21:25:23;98988.56;;;10.44;100.00
58973;BME280;44750;52.040;7.472;2023-12-28T21:30:23;98981.69;;;10.41;100.00
58973;BME280;44750;52.040;7.472;2023-12-28T21:35:24;98975.00;;;10.37;100.00
58973;BME280;44750;52.040;7.472;2023-12-28T21:40:24;98991.56;;;10.34;100.00
58973;BME280;44750;52.040;7.472;2023-12-28T21:45:25;98987.66;;;10.36;100.00
58973;BME280;44750;52.040;7.472;2023-12-28T21:50:25;98996.34;;;10.32;100.00
58973;BME280;44750;52.040;7.472;2023-12-28T21:55:25;99004.91;;;10.35;100.00
58973;BME280;44750;52.040;7.472;2023-12-28T22:00:25;98996.03;;;10.42;100.00
58973;BME280;44750;52.040;7.472;2023-12-28T22:05:26;98987.72;;;10.43;100.00
58973;BME280;44750;52.040;7.472;2023-12-28T22:10:26;98975.88;;;10.44;100.00
58973;BME280;44750;52.040;7.472;2023-12-28T22:15:26;98984.00;;;10.44;100.00
58973;BME280;44750;52.040;7.472;2023-12-28T22:20:26;98988.75;;;10.42;100.00
58973;BME280;44750;52.040;7.472;2023-12-28T22:25:27;98983.72;;;10.39;100.00
58973;BME280;44750;52.040;7.472;2023-12-28T22:30:27;98981.03;;;10.39;100.00
58973;BME280;44750;52.040;7.472;2023-12-28T22:35:27;98986.84;;;10.36;100.00
58973;BME280;44750;52.040;7.472;2023-12-28T22:40:28;99001.44;;;10.42;100.00
58973;BME280;44750;52.040;7.472;2023-12-28T22:45:28;98987.66;;;10.36;100.00
58973;BME280;44750;52.040;7.472;2023-12-28T22:50:28;99012.47;;;10.40;100.00
58973;BME280;44750;52.040;7.472;2023-12-28T22:55:28;99005.28;;;10.32;100.00
58973;BME280;44750;52.040;7.472;2023-12-28T23:00:29;99007.97;;;10.32;100.00
58973;BME280;44750;52.040;7.472;2023-12-28T23:05:29;99006.50;;;10.30;100.00
58973;BME280;44750;52.040;7.472;2023-12-28T23:10:29;99024.22;;;10.32;100.00
58973;BME280;44750;52.040;7.472;2023-12-28T23:15:29;99025.88;;;10.33;100.00
58973;BME280;44750;52.040;7.472;2023-12-28T23:20:30;99030.13;;;10.36;100.00
58973;BME280;44750;52.040;7.472;2023-12-28T23:25:30;99041.41;;;10.40;100.00
58973;BME280;44750;52.040;7.472;2023-12-28T23:30:30;99036.59;;;10.42;100.00
58973;BME280;44750;52.040;7.472;2023-12-28T23:35:31;99069.34;;;10.47;100.00
58973;BME280;44750;52.040;7.472;2023-12-28T23:40:31;99047.50;;;10.48;100.00
58973;BME280;44750;52.040;7.472;2023-12-28T23:45:31;99042.28;;;10.47;100.00
58973;BME280;44750;52.040;7.472;2023-12-28T23:50:31;99039.38;;;10.48;100.00
58973;BME280;44750;52.040;7.472;2023-12-28T23:55:32;99040.19;;;10.49;100.00
